sensor_id;sensor_type;location;lat;lon;timestamp;pressure;altitude;pressure_sealevel;temperature;humidity
43681;BME280;29281;50.356;30.894;2022-07-05T00:00:18;100011.41;;;24.96;54.38
43681;BME280;29281;50.356;30.894;2022-07-05T00:01:21;100010.17;;;24.99;54.37
43681;BME280;29281;50.356;30.894;2022-07-05T00:02:26;100012.94;;;25.05;54.09
43681;BME280;29281;50.356;30.894;2022-07-05T00:03:35;100010.22;;;25.05;54.16
43681;BME280;29281;50.356;30.894;2022-07-05T00:04:41;100014.77;;;24.98;54.43
43681;BME280;29281;50.356;30.894;2022-07-05T00:05:46;100014.13;;;24.96;54.53
43681;BME280;29281;50.356;30.894;2022-07-05T00:06:50;100013.48;;;24.94;54.50
43681;BME280;29281;50.356;30.894;2022-07-05T00:08:15;100012.45;;;24.95;54.67
43681;BME280;29281;50.356;30.894;2022-07-05T00:09:20;100025.83;;;24.97;54.53
43681;BME280;29281;50.356;30.894;2022-07-05T00:10:27;100022.27;;;24.96;54.53
43681;BME280;29281;50.356;30.894;2022-07-05T00:11:33;100022.72;;;25.00;54.57
43681;BME280;29281;50.356;30.894;2022-07-05T00:12:38;100022.52;;;25.01;54.57
43681;BME280;29281;50.356;30.894;2022-07-05T00:13:42;100022.08;;;24.98;54.55
43681;BME280;29281;50.356;30.894;2022-07-05T00:14:45;100024.99;;;24.96;54.60
43681;BME280;29281;50.356;30.894;2022-07-05T00:15:49;100027.43;;;24.91;54.70
43681;BME280;29281;50.356;30.894;2022-07-05T00:16:55;100028.07;;;24.93;54.76
43681;BME280;29281;50.356;30.894;2022-07-05T00:17:59;100037.45;;;24.90;54.81
43681;BME280;29281;50.356;30.894;2022-07-05T00:19:03;100039.76;;;24.87;55.01
43681;BME280;29281;50.356;30.894;2022-07-05T00:20:11;100040.59;;;24.87;55.18
43681;BME280;29281;50.356;30.894;2022-07-05T00:21:16;100037.88;;;24.87;55.13
43681;BME280;29281;50.356;30.894;2022-07-05T00:22:22;100046.25;;;24.93;54.93
43681;BME280;29281;50.356;30.894;2022-07-05T00:23:28;100047.52;;;24.90;55.06
43681;BME280;29281;50.356;30.894;2022-07-05T00:24:35;100045.83;;;24.89;55.21
43681;BME280;29281;50.356;30.894;2022-07-05T00:25:44;100039.36;;;24.90;55.01
43681;BME280;29281;50.356;30.894;2022-07-05T00:26:49;100042.28;;;24.88;55.15
43681;BME280;29281;50.356;30.894;2022-07-05T00:27:52;100041.02;;;24.91;55.01
43681;BME280;29281;50.356;30.894;2022-07-05T00:28:56;100046.25;;;24.93;54.98
43681;BME280;29281;50.356;30.894;2022-07-05T00:30:07;100056.27;;;24.92;55.15
43681;BME280;29281;50.356;30.894;2022-07-05T00:31:10;100052.72;;;24.92;55.16
43681;BME280;29281;50.356;30.894;2022-07-05T00:32:14;100052.05;;;24.83;55.33
43681;BME280;29281;50.356;30.894;2022-07-05T00:33:20;100052.45;;;24.80;55.28
43681;BME280;29281;50.356;30.894;2022-07-05T00:34:24;100054.95;;;24.75;55.25
43681;BME280;29281;50.356;30.894;2022-07-05T00:35:27;100054.05;;;24.68;55.13
43681;BME280;29281;50.356;30.894;2022-07-05T00:36:32;100053.46;;;24.72;54.70
43681;BME280;29281;50.356;30.894;2022-07-05T00:37:38;100051.08;;;24.63;54.74
43681;BME280;29281;50.356;30.894;2022-07-05T00:38:42;100048.34;;;24.56;54.64
43681;BME280;29281;50.356;30.894;2022-07-05T00:39:49;100051.80;;;24.43;54.56
43681;BME280;29281;50.356;30.894;2022-07-05T00:40:55;100060.13;;;24.42;54.61
43681;BME280;29281;50.356;30.894;2022-07-05T00:42:00;100059.20;;;24.28;54.82
43681;BME280;29281;50.356;30.894;2022-07-05T00:43:04;100068.79;;;24.31;54.84
43681;BME280;29281;50.356;30.894;2022-07-05T00:44:09;100062.75;;;24.29;54.92
43681;BME280;29281;50.356;30.894;2022-07-05T00:45:13;100069.11;;;24.21;55.17
43681;BME280;29281;50.356;30.894;2022-07-05T00:46:19;100062.38;;;24.17;55.26
43681;BME280;29281;50.356;30.894;2022-07-05T00:47:23;100065.89;;;24.11;55.44
43681;BME280;29281;50.356;30.894;2022-07-05T00:48:28;100063.83;;;24.13;55.44
43681;BME280;29281;50.356;30.894;2022-07-05T00:49:33;100068.15;;;24.07;55.76
43681;BME280;29281;50.356;30.894;2022-07-05T00:50:39;100067.50;;;24.05;55.92
43681;BME280;29281;50.356;30.894;2022-07-05T00:51:44;100069.25;;;24.13;55.80
43681;BME280;29281;50.356;30.894;2022-07-05T00:52:52;100067.58;;;24.12;56.04
43681;BME280;29281;50.356;30.894;2022-07-05T00:53:57;100070.67;;;24.09;56.19
43681;BME280;29281;50.356;30.894;2022-07-05T00:55:00;100070.91;;;24.14;56.14
43681;BME280;29281;50.356;30.894;2022-07-05T00:56:04;100069.11;;;24.21;55.90
43681;BME280;29281;50.356;30.894;2022-07-05T00:57:08;100073.15;;;24.25;56.08
43681;BME280;29281;50.356;30.894;2022-07-05T00:58:12;100069.78;;;24.23;56.28
43681;BME280;29281;50.356;30.894;2022-07-05T00:59:18;100063.55;;;24.29;56.14
43681;BME280;29281;50.356;30.894;2022-07-05T01:00:25;100070.63;;;24.24;56.35
43681;BME280;29281;50.356;30.894;2022-07-05T01:01:29;100067.34;;;24.28;56.10
43681;BME280;29281;50.356;30.894;2022-07-05T01:02:33;100063.55;;;24.29;56.10
43681;BME280;29281;50.356;30.894;2022-07-05T01:03:37;100064.63;;;24.28;56.21
43681;BME280;29281;50.356;30.894;2022-07-05T01:04:41;100066.27;;;24.29;56.26
43681;BME280;29281;50.356;30.894;2022-07-05T01:05:46;100067.56;;;24.33;56.21
43681;BME280;29281;50.356;30.894;2022-07-05T01:06:54;100063.55;;;24.29;56.31
43681;BME280;29281;50.356;30.894;2022-07-05T01:07:59;100075.21;;;24.23;56.67
43681;BME280;29281;50.356;30.894;2022-07-05T01:09:05;100067.23;;;24.22;56.84
43681;BME280;29281;50.356;30.894;2022-07-05T01:10:10;100069.78;;;24.23;56.74
43681;BME280;29281;50.356;30.894;2022-07-05T01:11:14;100069.03;;;24.14;57.24
43681;BME280;29281;50.356;30.894;2022-07-05T01:12:17;100071.36;;;24.17;57.03
43681;BME280;29281;50.356;30.894;2022-07-05T01:13:31;100063.03;;;24.19;57.30
43681;BME280;29281;50.356;30.894;2022-07-05T01:14:38;100066.04;;;24.24;57.07
43681;BME280;29281;50.356;30.894;2022-07-05T01:15:44;100067.07;;;24.23;57.15
43681;BME280;29281;50.356;30.894;2022-07-05T01:16:50;100066.49;;;24.28;57.07
43681;BME280;29281;50.356;30.894;2022-07-05T01:17:53;100065.36;;;24.22;57.47
43681;BME280;29281;50.356;30.894;2022-07-05T01:18:57;100065.20;;;24.24;57.38
43681;BME280;29281;50.356;30.894;2022-07-05T01:20:00;100065.00;;;24.25;57.25
43681;BME280;29281;50.356;30.894;2022-07-05T01:21:05;100065.36;;;24.22;57.41
43681;BME280;29281;50.356;30.894;2022-07-05T01:22:12;100067.62;;;24.18;57.51
43681;BME280;29281;50.356;30.894;2022-07-05T01:23:17;100063.83;;;24.13;57.68
43681;BME280;29281;50.356;30.894;2022-07-05T01:24:21;100068.84;;;24.16;57.46
43681;BME280;29281;50.356;30.894;2022-07-05T01:25:27;100068.41;;;24.12;57.68
43681;BME280;29281;50.356;30.894;2022-07-05T01:26:32;100064.91;;;24.18;57.47
43681;BME280;29281;50.356;30.894;2022-07-05T01:27:37;100065.09;;;24.17;57.38
43681;BME280;29281;50.356;30.894;2022-07-05T01:28:40;100065.09;;;24.17;57.66
43681;BME280;29281;50.356;30.894;2022-07-05T01:29:44;100064.91;;;24.18;57.77
43681;BME280;29281;50.356;30.894;2022-07-05T01:30:52;100055.08;;;24.17;57.76
43681;BME280;29281;50.356;30.894;2022-07-05T01:31:56;100061.06;;;24.28;57.68
43681;BME280;29281;50.356;30.894;2022-07-05T01:32:59;100056.06;;;24.31;57.66
43681;BME280;29281;50.356;30.894;2022-07-05T01:34:04;100066.79;;;24.39;57.49
43681;BME280;29281;50.356;30.894;2022-07-05T01:35:10;100063.81;;;24.34;57.73
43681;BME280;29281;50.356;30.894;2022-07-05T01:36:17;100060.52;;;24.39;57.35
43681;BME280;29281;50.356;30.894;2022-07-05T01:37:23;100059.03;;;24.36;57.57
43681;BME280;29281;50.356;30.894;2022-07-05T01:38:27;100060.07;;;24.35;57.49
43681;BME280;29281;50.356;30.894;2022-07-05T01:39:32;100060.07;;;24.35;57.58
43681;BME280;29281;50.356;30.894;2022-07-05T01:40:34;100057.74;;;24.32;57.86
43681;BME280;29281;50.356;30.894;2022-07-05T01:41:39;100066.79;;;24.39;57.54
43681;BME280;29281;50.356;30.894;2022-07-05T01:42:49;100054.06;;;24.40;57.45
43681;BME280;29281;50.356;30.894;2022-07-05T01:43:54;100065.38;;;24.43;57.36
43681;BME280;29281;50.356;30.894;2022-07-05T01:44:58;100066.41;;;24.42;57.56
43681;BME280;29281;50.356;30.894;2022-07-05T01:46:04;100060.33;;;24.40;57.57
43681;BME280;29281;50.356;30.894;2022-07-05T01:48:28;100067.53;;;24.54;57.76
43681;BME280;29281;50.356;30.894;2022-07-05T01:49:39;100067.63;;;24.40;57.95
43681;BME280;29281;50.356;30.894;2022-07-05T01:50:49;100066.34;;;24.36;57.91
43681;BME280;29281;50.356;30.894;2022-07-05T01:52:04;100072.41;;;24.38;57.97
43681;BME280;29281;50.356;30.894;2022-07-05T01:53:23;100070.99;;;24.42;57.79
43681;BME280;29281;50.356;30.894;2022-07-05T01:54:24;100074.58;;;24.49;57.70
43681;BME280;29281;50.356;30.894;2022-07-05T01:55:29;100069.16;;;24.49;57.66
43681;BME280;29281;50.356;30.894;2022-07-05T01:56:33;100071.41;;;24.45;57.83
43681;BME280;29281;50.356;30.894;2022-07-05T01:57:36;100066.83;;;24.46;57.93
43681;BME280;29281;50.356;30.894;2022-07-05T01:58:39;100069.31;;;24.41;58.19
43681;BME280;29281;50.356;30.894;2022-07-05T01:59:42;100068.70;;;24.45;58.11
43681;BME280;29281;50.356;30.894;2022-07-05T02:00:52;100067.66;;;24.46;57.84
43681;BME280;29281;50.356;30.894;2022-07-05T02:01:58;100064.37;;;24.51;57.67
43681;BME280;29281;50.356;30.894;2022-07-05T02:03:02;100069.16;;;24.49;57.68
43681;BME280;29281;50.356;30.894;2022-07-05T02:04:09;100062.69;;;24.50;57.79
43681;BME280;29281;50.356;30.894;2022-07-05T02:05:14;100069.61;;;24.52;57.87
43681;BME280;29281;50.356;30.894;2022-07-05T02:06:19;100057.32;;;24.57;57.71
43681;BME280;29281;50.356;30.894;2022-07-05T02:07:22;100065.86;;;24.53;57.71
43681;BME280;29281;50.356;30.894;2022-07-05T02:08:29;100069.89;;;24.36;58.15
43681;BME280;29281;50.356;30.894;2022-07-05T02:09:36;100065.95;;;24.39;58.24
43681;BME280;29281;50.356;30.894;2022-07-05T02:10:44;100062.39;;;24.38;58.07
43681;BME280;29281;50.356;30.894;2022-07-05T02:11:48;100062.39;;;24.38;58.14
43681;BME280;29281;50.356;30.894;2022-07-05T02:12:55;100060.52;;;24.39;58.27
43681;BME280;29281;50.356;30.894;2022-07-05T02:13:59;100064.53;;;24.43;58.07
43681;BME280;29281;50.356;30.894;2022-07-05T02:15:12;100059.52;;;24.46;57.91
43681;BME280;29281;50.356;30.894;2022-07-05T02:16:23;100064.11;;;24.46;58.01
43681;BME280;29281;50.356;30.894;2022-07-05T02:17:28;100063.50;;;24.44;58.01
43681;BME280;29281;50.356;30.894;2022-07-05T02:18:33;100064.56;;;24.49;57.91
43681;BME280;29281;50.356;30.894;2022-07-05T02:19:37;100065.14;;;24.45;58.02
43681;BME280;29281;50.356;30.894;2022-07-05T02:20:43;100062.88;;;24.48;57.89
43681;BME280;29281;50.356;30.894;2022-07-05T02:21:47;100068.28;;;24.42;58.44
43681;BME280;29281;50.356;30.894;2022-07-05T02:22:52;100062.04;;;24.48;58.21
43681;BME280;29281;50.356;30.894;2022-07-05T02:23:58;100064.76;;;24.48;58.13
43681;BME280;29281;50.356;30.894;2022-07-05T02:25:04;100061.91;;;24.56;57.90
43681;BME280;29281;50.356;30.894;2022-07-05T02:26:10;100053.12;;;24.54;57.69
43681;BME280;29281;50.356;30.894;2022-07-05T02:27:14;100057.97;;;24.59;57.63
43681;BME280;29281;50.356;30.894;2022-07-05T02:28:17;100058.19;;;24.64;57.23
43681;BME280;29281;50.356;30.894;2022-07-05T02:29:25;100055.08;;;24.67;57.37
43681;BME280;29281;50.356;30.894;2022-07-05T02:30:31;100053.66;;;24.71;57.10
43681;BME280;29281;50.356;30.894;2022-07-05T02:31:35;100057.80;;;24.67;57.23
43681;BME280;29281;50.356;30.894;2022-07-05T02:32:41;100056.31;;;24.64;57.05
43681;BME280;29281;50.356;30.894;2022-07-05T02:33:46;100056.95;;;24.66;57.14
43681;BME280;29281;50.356;30.894;2022-07-05T02:34:52;100063.42;;;24.65;57.24
43681;BME280;29281;50.356;30.894;2022-07-05T02:35:55;100059.67;;;24.66;57.05
43681;BME280;29281;50.356;30.894;2022-07-05T02:37:00;100063.42;;;24.65;57.28
43681;BME280;29281;50.356;30.894;2022-07-05T02:38:04;100068.91;;;24.72;57.20
43681;BME280;29281;50.356;30.894;2022-07-05T02:39:09;100059.53;;;24.74;56.89
43681;BME280;29281;50.356;30.894;2022-07-05T02:40:16;100056.84;;;24.81;56.60
43681;BME280;29281;50.356;30.894;2022-07-05T02:41:22;100060.65;;;24.86;56.47
43681;BME280;29281;50.356;30.894;2022-07-05T02:42:26;100062.72;;;24.84;56.53
43681;BME280;29281;50.356;30.894;2022-07-05T02:43:32;100055.02;;;24.88;56.43
43681;BME280;29281;50.356;30.894;2022-07-05T02:44:41;100064.20;;;24.87;56.42
43681;BME280;29281;50.356;30.894;2022-07-05T02:45:45;100062.33;;;24.87;56.35
43681;BME280;29281;50.356;30.894;2022-07-05T02:46:54;100060.45;;;24.88;56.40
43681;BME280;29281;50.356;30.894;2022-07-05T02:47:58;100063.58;;;24.92;56.28
43681;BME280;29281;50.356;30.894;2022-07-05T02:49:04;100057.54;;;24.89;56.33
43681;BME280;29281;50.356;30.894;2022-07-05T02:50:11;100071.96;;;24.90;56.19
43681;BME280;29281;50.356;30.894;2022-07-05T02:51:16;100065.74;;;24.96;56.59
43681;BME280;29281;50.356;30.894;2022-07-05T02:52:21;100066.83;;;25.02;55.85
43681;BME280;29281;50.356;30.894;2022-07-05T03:19:01;100079.11;;;26.92;52.10
43681;BME280;29281;50.356;30.894;2022-07-05T03:20:05;100067.43;;;26.65;53.34
43681;BME280;29281;50.356;30.894;2022-07-05T03:21:09;100067.43;;;26.65;53.34
43681;BME280;29281;50.356;30.894;2022-07-05T03:22:12;100079.16;;;26.59;53.72
43681;BME280;29281;50.356;30.894;2022-07-05T03:23:19;100082.53;;;26.54;54.01
43681;BME280;29281;50.356;30.894;2022-07-05T03:24:25;100083.16;;;26.50;54.38
43681;BME280;29281;50.356;30.894;2022-07-05T03:25:30;100079.39;;;26.51;54.37
43681;BME280;29281;50.356;30.894;2022-07-05T03:26:35;100083.16;;;26.50;54.48
43681;BME280;29281;50.356;30.894;2022-07-05T03:27:41;100084.22;;;26.42;55.06
43681;BME280;29281;50.356;30.894;2022-07-05T03:28:44;100085.25;;;26.48;54.68
43681;BME280;29281;50.356;30.894;2022-07-05T03:29:48;100089.03;;;26.53;54.77
43681;BME280;29281;50.356;30.894;2022-07-05T03:30:51;100087.34;;;26.66;53.89
43681;BME280;29281;50.356;30.894;2022-07-05T03:31:56;100085.88;;;26.70;53.41
43681;BME280;29281;50.356;30.894;2022-07-05T03:33:00;100085.23;;;26.61;54.55
43681;BME280;29281;50.356;30.894;2022-07-05T03:34:04;100086.30;;;26.53;54.32
43681;BME280;29281;50.356;30.894;2022-07-05T03:35:08;100082.53;;;26.54;54.28
43681;BME280;29281;50.356;30.894;2022-07-05T03:36:12;100083.38;;;26.55;53.74
43681;BME280;29281;50.356;30.894;2022-07-05T03:37:20;100078.77;;;26.55;54.42
43681;BME280;29281;50.356;30.894;2022-07-05T03:38:24;100086.28;;;26.60;53.74
43681;BME280;29281;50.356;30.894;2022-07-05T03:39:27;100082.13;;;26.57;53.89
43681;BME280;29281;50.356;30.894;2022-07-05T03:40:32;100086.08;;;26.68;53.83
43681;BME280;29281;50.356;30.894;2022-07-05T03:41:39;100080.39;;;26.76;53.27
43681;BME280;29281;50.356;30.894;2022-07-05T03:42:51;100082.25;;;26.89;54.06
43681;BME280;29281;50.356;30.894;2022-07-05T03:43:55;100080.40;;;26.83;54.15
43681;BME280;29281;50.356;30.894;2022-07-05T03:44:59;100086.90;;;26.88;54.19
43681;BME280;29281;50.356;30.894;2022-07-05T03:46:03;100086.48;;;26.85;53.55
43681;BME280;29281;50.356;30.894;2022-07-05T03:47:07;100087.52;;;26.84;53.59
43681;BME280;29281;50.356;30.894;2022-07-05T03:48:15;100086.71;;;26.70;53.39
43681;BME280;29281;50.356;30.894;2022-07-05T03:49:21;100081.47;;;26.62;53.87
43681;BME280;29281;50.356;30.894;2022-07-05T03:50:28;100090.27;;;26.71;54.14
43681;BME280;29281;50.356;30.894;2022-07-05T03:51:32;100076.00;;;26.82;53.26
43681;BME280;29281;50.356;30.894;2022-07-05T03:52:36;100084.38;;;26.93;53.59
43681;BME280;29281;50.356;30.894;2022-07-05T03:53:43;100080.19;;;26.84;52.80
43681;BME280;29281;50.356;30.894;2022-07-05T03:54:48;100085.64;;;26.84;54.04
43681;BME280;29281;50.356;30.894;2022-07-05T03:55:55;100082.28;;;26.95;53.50
43681;BME280;29281;50.356;30.894;2022-07-05T03:56:58;100082.28;;;27.02;52.88
43681;BME280;29281;50.356;30.894;2022-07-05T03:58:02;100087.91;;;27.07;52.85
43681;BME280;29281;50.356;30.894;2022-07-05T03:59:05;100087.53;;;26.97;52.62
43681;BME280;29281;50.356;30.894;2022-07-05T04:00:12;100087.73;;;27.02;53.26
43681;BME280;29281;50.356;30.894;2022-07-05T04:01:21;100089.20;;;26.98;53.00
43681;BME280;29281;50.356;30.894;2022-07-05T04:02:26;100088.53;;;27.09;53.30
43681;BME280;29281;50.356;30.894;2022-07-05T04:03:32;100087.66;;;27.22;52.25
43681;BME280;29281;50.356;30.894;2022-07-05T04:04:37;100089.53;;;27.28;52.39
43681;BME280;29281;50.356;30.894;2022-07-05T04:05:41;100085.55;;;27.30;52.15
43681;BME280;29281;50.356;30.894;2022-07-05T04:06:45;100081.14;;;27.29;51.42
43681;BME280;29281;50.356;30.894;2022-07-05T04:07:57;100084.65;;;27.43;51.41
43681;BME280;29281;50.356;30.894;2022-07-05T04:09:06;100085.23;;;27.58;51.40
43681;BME280;29281;50.356;30.894;2022-07-05T04:10:13;100085.84;;;27.54;51.34
43681;BME280;29281;50.356;30.894;2022-07-05T04:11:19;100086.48;;;27.62;51.35
43681;BME280;29281;50.356;30.894;2022-07-05T04:12:24;100086.00;;;27.72;51.09
43681;BME280;29281;50.356;30.894;2022-07-05T04:13:27;100084.97;;;27.66;50.85
43681;BME280;29281;50.356;30.894;2022-07-05T04:14:32;100082.91;;;27.55;51.15
43681;BME280;29281;50.356;30.894;2022-07-05T04:15:36;100081.95;;;27.81;51.03
43681;BME280;29281;50.356;30.894;2022-07-05T04:16:42;100085.27;;;27.90;50.53
43681;BME280;29281;50.356;30.894;2022-07-05T04:17:52;100085.27;;;27.90;50.53
43681;BME280;29281;50.356;30.894;2022-07-05T04:19:01;100087.52;;;27.99;50.33
43681;BME280;29281;50.356;30.894;2022-07-05T04:20:04;100095.17;;;28.16;49.47
43681;BME280;29281;50.356;30.894;2022-07-05T04:21:10;100092.32;;;28.04;49.78
43681;BME280;29281;50.356;30.894;2022-07-05T04:22:23;100088.97;;;28.02;49.78
43681;BME280;29281;50.356;30.894;2022-07-05T04:23:27;100081.62;;;28.03;49.74
43681;BME280;29281;50.356;30.894;2022-07-05T04:24:33;100085.47;;;27.95;50.07
43681;BME280;29281;50.356;30.894;2022-07-05T04:25:43;100091.45;;;28.10;50.18
43681;BME280;29281;50.356;30.894;2022-07-05T04:26:51;100090.98;;;28.20;49.66
43681;BME280;29281;50.356;30.894;2022-07-05T04:29:09;100082.57;;;28.46;49.77
43681;BME280;29281;50.356;30.894;2022-07-05T04:30:17;100084.53;;;28.39;49.70
43681;BME280;29281;50.356;30.894;2022-07-05T04:31:21;100077.63;;;28.37;50.37
43681;BME280;29281;50.356;30.894;2022-07-05T04:32:29;100082.86;;;28.38;50.06
43681;BME280;29281;50.356;30.894;2022-07-05T04:33:33;100078.06;;;28.33;51.11
43681;BME280;29281;50.356;30.894;2022-07-05T04:34:41;100084.69;;;28.13;50.45
43681;BME280;29281;50.356;30.894;2022-07-05T04:35:46;100082.17;;;28.43;50.23
43681;BME280;29281;50.356;30.894;2022-07-05T04:36:49;100078.91;;;28.84;48.92
43681;BME280;29281;50.356;30.894;2022-07-05T04:37:51;100084.73;;;29.79;46.56
43681;BME280;29281;50.356;30.894;2022-07-05T04:38:58;100096.03;;;31.75;41.53
43681;BME280;29281;50.356;30.894;2022-07-05T04:40:06;100111.87;;;34.01;37.01
43681;BME280;29281;50.356;30.894;2022-07-05T04:41:12;100126.97;;;35.79;34.01
43681;BME280;29281;50.356;30.894;2022-07-05T04:42:15;100133.73;;;36.99;32.08
43681;BME280;29281;50.356;30.894;2022-07-05T04:43:22;100138.78;;;37.77;30.64
43681;BME280;29281;50.356;30.894;2022-07-05T04:44:26;100146.80;;;37.84;30.46
43681;BME280;29281;50.356;30.894;2022-07-05T04:45:34;100144.54;;;38.74;29.34
43681;BME280;29281;50.356;30.894;2022-07-05T04:46:47;100157.83;;;39.59;28.36
43681;BME280;29281;50.356;30.894;2022-07-05T04:47:52;100153.63;;;40.04;27.61
43681;BME280;29281;50.356;30.894;2022-07-05T04:48:58;100158.67;;;40.58;27.00
43681;BME280;29281;50.356;30.894;2022-07-05T04:50:04;100158.97;;;40.75;26.54
43681;BME280;29281;50.356;30.894;2022-07-05T04:51:08;100169.41;;;40.65;26.09
43681;BME280;29281;50.356;30.894;2022-07-05T04:52:16;100168.61;;;41.10;25.71
43681;BME280;29281;50.356;30.894;2022-07-05T04:53:18;100175.83;;;41.58;25.09
43681;BME280;29281;50.356;30.894;2022-07-05T04:54:22;100167.63;;;41.89;25.03
43681;BME280;29281;50.356;30.894;2022-07-05T04:55:32;100173.58;;;42.23;24.78
43681;BME280;29281;50.356;30.894;2022-07-05T04:56:37;100173.51;;;42.15;24.81
43681;BME280;29281;50.356;30.894;2022-07-05T04:57:41;100180.08;;;41.69;25.02
43681;BME280;29281;50.356;30.894;2022-07-05T04:58:44;100170.01;;;41.40;25.48
43681;BME280;29281;50.356;30.894;2022-07-05T04:59:49;100168.07;;;41.82;24.81
43681;BME280;29281;50.356;30.894;2022-07-05T05:00:54;100168.41;;;41.67;25.08
43681;BME280;29281;50.356;30.894;2022-07-05T05:01:57;100166.39;;;41.26;25.39
43681;BME280;29281;50.356;30.894;2022-07-05T05:03:01;100172.17;;;41.16;25.39
43681;BME280;29281;50.356;30.894;2022-07-05T05:04:06;100159.42;;;41.70;25.01
43681;BME280;29281;50.356;30.894;2022-07-05T05:05:11;100167.93;;;42.15;24.52
43681;BME280;29281;50.356;30.894;2022-07-05T05:06:16;100170.53;;;42.47;24.23
43681;BME280;29281;50.356;30.894;2022-07-05T05:07:20;100167.23;;;42.45;23.74
43681;BME280;29281;50.356;30.894;2022-07-05T05:08:25;100174.95;;;42.70;23.58
43681;BME280;29281;50.356;30.894;2022-07-05T05:09:28;100179.48;;;43.11;23.12
43681;BME280;29281;50.356;30.894;2022-07-05T05:10:33;100174.59;;;43.16;23.00
43681;BME280;29281;50.356;30.894;2022-07-05T05:11:36;100179.14;;;43.04;23.26
43681;BME280;29281;50.356;30.894;2022-07-05T05:12:43;100173.48;;;42.95;23.19
43681;BME280;29281;50.356;30.894;2022-07-05T05:13:50;100171.52;;;42.96;23.27
43681;BME280;29281;50.356;30.894;2022-07-05T05:14:54;100165.24;;;42.68;23.58
43681;BME280;29281;50.356;30.894;2022-07-05T05:15:57;100164.69;;;42.79;23.60
43681;BME280;29281;50.356;30.894;2022-07-05T05:17:01;100171.91;;;43.34;23.10
43681;BME280;29281;50.356;30.894;2022-07-05T05:18:04;100170.13;;;43.38;23.18
43681;BME280;29281;50.356;30.894;2022-07-05T05:19:08;100173.77;;;43.16;23.36
43681;BME280;29281;50.356;30.894;2022-07-05T05:20:18;100176.75;;;43.50;23.16
43681;BME280;29281;50.356;30.894;2022-07-05T05:21:18;100176.15;;;43.62;22.96
43681;BME280;29281;50.356;30.894;2022-07-05T05:22:23;100169.09;;;43.65;22.88
43681;BME280;29281;50.356;30.894;2022-07-05T05:23:29;100172.11;;;43.94;22.67
43681;BME280;29281;50.356;30.894;2022-07-05T05:24:32;100177.52;;;43.91;23.08
43681;BME280;29281;50.356;30.894;2022-07-05T05:25:44;100179.27;;;43.61;23.36
43681;BME280;29281;50.356;30.894;2022-07-05T05:26:47;100173.48;;;42.95;23.61
43681;BME280;29281;50.356;30.894;2022-07-05T05:27:52;100172.81;;;42.45;24.25
43681;BME280;29281;50.356;30.894;2022-07-05T05:28:56;100168.50;;;43.14;23.84
43681;BME280;29281;50.356;30.894;2022-07-05T05:30:09;100164.38;;;42.23;24.63
43681;BME280;29281;50.356;30.894;2022-07-05T05:31:13;100167.42;;;42.93;23.55
43681;BME280;29281;50.356;30.894;2022-07-05T05:32:17;100172.87;;;43.29;23.17
43681;BME280;29281;50.356;30.894;2022-07-05T05:33:23;100169.89;;;43.26;23.34
43681;BME280;29281;50.356;30.894;2022-07-05T05:34:34;100167.55;;;42.88;23.78
43681;BME280;29281;50.356;30.894;2022-07-05T05:35:38;100165.02;;;43.09;23.76
43681;BME280;29281;50.356;30.894;2022-07-05T05:36:42;100172.41;;;43.05;23.58
43681;BME280;29281;50.356;30.894;2022-07-05T05:37:48;100176.25;;;44.05;22.65
43681;BME280;29281;50.356;30.894;2022-07-05T05:38:52;100167.86;;;44.66;22.23
43681;BME280;29281;50.356;30.894;2022-07-05T05:39:56;100187.23;;;45.14;21.64
43681;BME280;29281;50.356;30.894;2022-07-05T05:41:00;100187.35;;;45.35;21.68
43681;BME280;29281;50.356;30.894;2022-07-05T05:42:05;100185.31;;;45.82;21.12
43681;BME280;29281;50.356;30.894;2022-07-05T05:43:08;100187.64;;;44.86;21.75
43681;BME280;29281;50.356;30.894;2022-07-05T05:44:13;100188.02;;;45.32;21.28
43681;BME280;29281;50.356;30.894;2022-07-05T05:45:26;100190.41;;;45.04;21.48
43681;BME280;29281;50.356;30.894;2022-07-05T05:46:32;100183.85;;;44.74;21.93
43681;BME280;29281;50.356;30.894;2022-07-05T05:47:45;100195.45;;;45.28;21.51
43681;BME280;29281;50.356;30.894;2022-07-05T05:48:51;100196.23;;;45.75;21.18
43681;BME280;29281;50.356;30.894;2022-07-05T05:49:56;100196.73;;;46.06;20.89
43681;BME280;29281;50.356;30.894;2022-07-05T05:51:01;100193.77;;;45.73;20.81
43681;BME280;29281;50.356;30.894;2022-07-05T05:52:05;100197.98;;;45.59;20.75
43681;BME280;29281;50.356;30.894;2022-07-05T05:53:10;100197.48;;;45.95;20.23
43681;BME280;29281;50.356;30.894;2022-07-05T05:54:13;100192.03;;;46.40;19.79
43681;BME280;29281;50.356;30.894;2022-07-05T05:55:18;100192.03;;;46.40;19.79
43681;BME280;29281;50.356;30.894;2022-07-05T05:56:23;100198.90;;;46.01;20.12
43681;BME280;29281;50.356;30.894;2022-07-05T05:57:26;100201.45;;;45.94;20.20
43681;BME280;29281;50.356;30.894;2022-07-05T05:58:30;100209.75;;;46.11;20.06
43681;BME280;29281;50.356;30.894;2022-07-05T05:59:33;100205.89;;;45.95;20.21
43681;BME280;29281;50.356;30.894;2022-07-05T06:00:38;100201.97;;;46.37;19.80
43681;BME280;29281;50.356;30.894;2022-07-05T06:01:42;100205.48;;;46.88;19.52
43681;BME280;29281;50.356;30.894;2022-07-05T06:02:47;100203.44;;;47.09;19.30
43681;BME280;29281;50.356;30.894;2022-07-05T06:03:52;100203.52;;;47.58;18.93
43681;BME280;29281;50.356;30.894;2022-07-05T06:04:56;100205.87;;;47.44;19.22
43681;BME280;29281;50.356;30.894;2022-07-05T06:05:59;100198.84;;;47.62;19.08